• Join FlightAware (Why Join?)
  • Login
  • US Flag 
08:58AM EDT


 

Airport Tracker/Info


-or-


 

Live Flight TrackerFlight Track Log ✈ DAL2416 ✈ 18-Nov-2013 ✈ KGRR - KATL

Flight Track Log - Related Links

Times and Time Zones

All times are in EST time to prevent confusion due to time zone crossing. See the DAL2416 flight status page for this flight to view local times or setup timezone preferences in your user account.

Time Position Orientation Groundspeed Altitude Reporting Facility
EST Latitude Longitude Course Direction KTS MPH feet Rate Location/Type
05:29PM 42.8522 -85.5806 185° South 196 226 2,800  Level Chicago Center
05:30PM 42.7992 -85.6389 219° Southwest 233 268 6,600 3,180 Climbing Chicago Center
05:31PM 42.5284 -85.4754 180° South  Level Estimated
05:31PM 42.7236 -85.6653 194° South 293 337 9,400  Level Chicago Center
05:32PM 42.4105 -85.4813 182° South  Level FlightAware Approximate
05:32PM 42.6342 -85.6511 173° South 318 366 10,600  Level Chicago Center
05:33PM 42.2925 -85.4872 182° South  Level FlightAware Approximate
05:33PM 42.5322 -85.6503 180° South 358 412 12,500  Level Chicago Center
05:34PM 42.1751 -85.4710 180° South  Level Estimated
05:34PM 42.4181 -85.6475 179° South 398 458 15,000  Level Chicago Center
05:35PM 42.0576 -85.4548 185° South  Level Estimated
05:35PM 42.2967 -85.6456 179° South 426 490 17,100  Level Chicago Center
05:36PM 42.1444 -85.6433 179° South 451 519 19,800 2,340 Climbing Chicago Center
05:38PM 42.0144 -85.6406 179° South 462 532 22,000 1,920 Climbing Chicago Center
05:39PM 41.8997 -85.6381 179° South 464 534 23,800 1,740 Climbing Chicago Center
05:40PM 41.7414 -85.6361 179° South 475 547 25,700 1,920 Climbing Chicago Center
05:41PM 41.6111 -85.6339 179° South 478 550 27,800 1,740 Climbing Chicago Center
05:42PM 41.4831 -85.6314 179° South 473 544 29,400 1,500 Climbing Chicago Center
05:43PM 41.3550 -85.6286 179° South 467 537 31,000 1,800 Climbing Chicago Center
05:44PM 41.2006 -85.6258 179° South 465 535 33,100 1,440 Climbing Chicago Center
05:45PM 41.0761 -85.6253 180° South 454 522 34,000 420 Climbing Chicago Center
05:46PM 40.9494 -85.6239 180° South 455 524 34,000  Level Chicago Center
05:47PM 40.8242 -85.6206 179° South 454 522 34,000  Level Chicago Center
05:48PM 40.6989 -85.6197 180° South 452 520 34,000  Level Chicago Center
05:49PM 40.5508 -85.6172 179° South 447 514 34,000  Level Chicago Center
05:50PM 40.4261 -85.6169 180° South 447 514 34,000  Level Chicago Center
05:51PM 40.3239 -85.6139 179° South 450 518 34,000  Level Indianapolis Center
05:52PM 40.1981 -85.6131 180° South 451 519 34,000  Level Indianapolis Center
05:53PM 40.0722 -85.6114 179° South 451 519 34,000  Level Indianapolis Center
05:54PM 39.9469 -85.6089 179° South 450 518 34,000  Level Indianapolis Center
05:55PM 39.8219 -85.6067 179° South 448 516 34,000  Level Indianapolis Center
05:56PM 39.6953 -85.6050 179° South 451 519 34,000  Level Indianapolis Center
05:57PM 39.5678 -85.6025 179° South 456 525 34,000  Level Indianapolis Center
05:58PM 39.4147 -85.6008 180° South 457 526 34,000  Level Indianapolis Center
05:59PM 39.2881 -85.5975 179° South 456 525 34,000  Level Indianapolis Center
06:00PM 39.1592 -85.5942 179° South 459 528 34,000  Level Indianapolis Center
06:01PM 39.0328 -85.5928 180° South 458 527 34,000  Level Indianapolis Center
06:02PM 38.9061 -85.5911 179° South 456 525 34,000  Level Indianapolis Center
06:03PM 38.7808 -85.5883 179° South 453 521 34,000  Level Indianapolis Center
06:04PM 38.6272 -85.5850 179° South 459 528 34,000  Level Indianapolis Center
06:05PM 38.4939 -85.5836 180° South 462 532 34,000  Level Indianapolis Center
06:06PM 38.3644 -85.5817 179° South 462 532 34,000  Level Indianapolis Center
06:07PM 38.2439 -85.6108 191° South 442 509 34,000  Level Indianapolis Center
06:08PM 38.1386 -85.6678 203° Southwest 413 475 34,000  Level Indianapolis Center
06:09PM 38.0381 -85.7328 207° Southwest 405 466 34,000  Level Indianapolis Center
06:10PM 37.9386 -85.7986 208° Southwest 401 461 34,000  Level Indianapolis Center
06:11PM 37.8367 -85.8658 208° Southwest 408 470 34,000  Level Indianapolis Center
06:12PM 37.7353 -85.9311 207° Southwest 407 468 34,000  Level Indianapolis Center
06:13PM 37.6136 -86.0111 208° Southwest 407 468 34,000 -240 Level Indianapolis Center
06:14PM 37.5233 -86.0692 207° Southwest 404 465 33,500 -540 Descending Indianapolis Center
06:16PM 37.4042 -86.1450 207° Southwest 406 467 33,000 -300 Descending Indianapolis Center
06:17PM 37.2994 -86.2111 207° Southwest 416 479 33,000  Level Indianapolis Center
06:18PM 37.1944 -86.2778 207° Southwest 418 481 33,000  Level Indianapolis Center
06:19PM 37.0919 -86.3425 207° Southwest 411 473 33,000  Level Indianapolis Center
06:20PM 37.0053 -86.3978 207° Southwest 412 474 33,000  Level Memphis Center
06:21PM 36.8922 -86.4436 198° South 431 496 33,000  Level Memphis Center
06:22PM 36.7389 -86.4317 176° South 465 535 33,000  Level Memphis Center
06:23PM 36.6081 -86.4217 176° South 464 534 33,000  Level Memphis Center
06:24PM 36.4781 -86.4133 177° South 461 531 33,000  Level Memphis Center
06:25PM 36.3489 -86.4042 177° South 458 527 33,000  Level Memphis Center
06:26PM 36.2183 -86.3967 177° South 459 528 33,000  Level Memphis Center
06:27PM 36.0906 -86.3900 178° South 456 525 33,000  Level Memphis Center
06:28PM 35.9631 -86.3814 177° South 453 521 33,000  Level Memphis Center
06:29PM 35.8353 -86.3731 177° South 453 521 33,000  Level Memphis Center
06:30PM 35.7092 -86.3339 166° South 471 542 33,000  Level Memphis Center
06:31PM 35.5697 -86.2208 147° Southeast 505 581 33,000  Level Memphis Center
06:31PM 35.5100 -86.1742 148° Southeast 522 601 33,000  Level Atlanta Center
06:32PM 35.3844 -86.0742 147° Southeast 517 595 33,000  Level Atlanta Center
06:33PM 35.2711 -85.9847 147° Southeast 503 579 33,000  Level Atlanta Center
06:34PM 35.1597 -85.8958 147° Southeast 488 562 33,000  Level Atlanta Center
06:35PM 35.0483 -85.8044 146° Southeast 483 556 33,000 -180 Level Atlanta Center
06:36PM 34.9350 -85.7161 147° Southeast 483 556 32,700 -600 Descending Atlanta Center
06:37PM 34.8214 -85.6278 147° Southeast 483 556 31,900 -2,100 Descending Atlanta Center
06:38PM 34.7075 -85.5397 148° Southeast 483 556 28,600 -3,360 Descending Atlanta Center
06:39PM 34.5897 -85.4492 148° Southeast 488 562 25,200 -3,000 Descending Atlanta Center
06:40PM 34.4800 -85.3642 147° Southeast 488 562 22,700 -2,640 Descending Atlanta Center
06:41PM 34.3869 -85.2897 147° Southeast 471 542 20,000 -2,520 Descending Atlanta Center
06:42PM 34.2833 -85.2103 148° Southeast 450 518 17,700 -2,400 Descending Atlanta Center
06:43PM 34.1839 -85.1311 147° Southeast 445 512 15,300 -1,860 Descending Atlanta Center
06:44PM 34.1033 -85.0397 137° Southeast 412 474 14,000 -900 Descending Atlanta Center
06:45PM 34.0247 -84.9411 134° Southeast 402 463 13,600 -600 Descending Atlanta Center
06:46PM 33.9439 -84.8400 134° Southeast 391 450 12,800 -900 Descending Atlanta Center
06:47PM 33.8667 -84.7500 136° Southeast 384 442 12,000 -480 Descending Atlanta TRACON
06:48PM 33.8167 -84.6667 126° Southeast 318 366 12,000  Level Atlanta TRACON
06:49PM 33.7500 -84.6167 148° Southeast 279 321 12,000 -480 Level Atlanta TRACON
06:50PM 33.7333 -84.5333 104° East 278 320 11,100 -1,260 Descending Atlanta TRACON
06:51PM 33.7333 -84.4333 90° East 282 325 9,400 -1,500 Descending Atlanta TRACON
06:52PM 33.7333 -84.3333 90° East 265 305 7,900 -1,200 Descending Atlanta TRACON
06:53PM 33.7333 -84.2500 90° East 253 291 7,000 -1,020 Descending Atlanta TRACON
06:54PM 33.7167 -84.1833 107° East 247 284 5,900 -960 Descending Atlanta TRACON
06:55PM 33.6667 -84.1667 164° South 224 258 5,000 -900 Descending Atlanta TRACON
06:56PM 33.6500 -84.2167 248° West 176 203 4,300 -960 Descending Atlanta TRACON
06:57PM 33.6500 -84.2833 270° West 175 201 3,200 -1,080 Descending Atlanta TRACON
06:58PM 33.6500 -84.3333 270° West 163 188 2,200 -900 Descending Atlanta TRACON
06:59PM 33.6500 -84.3833 270° West 145 167 1,400 -840 Descending Atlanta TRACON
07:01PM 33.6333 -84.4167 265° West  Level FlightAware Approximate
07:08PM 33.6367 -84.4279 265° West  Level Estimated
07:09PM 33.6367 -84.4279 265° West  Level Estimated